Current Weather

De Kalb Taylor Muni

De Kalb, Illinois (KDKB)

Report from: Wednesday, May 29, 2024 2:55 AM CDT
Current time: Wednesday, May 29, 2024 3:27 AM CDT

Nearby weather – Weather history – Daily summaries
Weather forecast

Temperature12.0°C (53.6°F)
Dew point10.0°C (50.0°F)
Winds 6 kts (3.1 m/s, 6.9 mph) North-Northwest (330°)
Visibility10 mi. (16.1 km)
Clouds Ceiling: Broken clouds 6,000 ft. (1,829 m)
Altimeter30.11 in.Hg (1020 mB)
Relative humidity88 %
Density altitude-400 ft. (-122 m)
Remarks Fully automated report
Automated weather observing station with precipitation discriminator
Flight conditions Visual Meteorological Conditions
Raw dataKDKB 290755Z AUTO 33006KT 10SM BKN060 12/10 A3011 RMK AO2 T01200100
An error has occurred. This application may no longer respond until reloaded. Reload 🗙